createdAt,value
2023-03-25T00:00:19.171Z,33.40
2023-03-25T00:03:06.811Z,25.45
2023-03-25T00:05:33.910Z,34.00
2023-03-25T00:08:01.268Z,23.20
2023-03-25T00:10:28.390Z,23.58
2023-03-25T00:12:55.733Z,21.52
2023-03-25T00:15:23.851Z,24.30
2023-03-25T00:17:51.383Z,20.98
2023-03-25T00:20:18.524Z,24.73
2023-03-25T00:22:45.955Z,25.70
2023-03-25T00:25:20.371Z,26.73
2023-03-25T00:27:48.907Z,35.97
2023-03-25T00:30:16.717Z,29.58
2023-03-25T00:32:46.432Z,20.77
2023-03-25T00:35:14.066Z,19.17
2023-03-25T00:37:41.487Z,22.10
2023-03-25T00:40:09.117Z,19.33
2023-03-25T00:42:36.424Z,23.67
2023-03-25T00:45:04.058Z,22.55
2023-03-25T00:47:32.277Z,19.02
2023-03-25T00:49:59.317Z,17.65
2023-03-25T00:52:26.724Z,18.67
2023-03-25T00:54:53.991Z,21.73
2023-03-25T00:57:22.336Z,22.67
2023-03-25T00:59:51.358Z,19.65
2023-03-25T01:02:19.108Z,21.55
2023-03-25T01:04:49.806Z,20.55
2023-03-25T01:07:18.506Z,24.58
2023-03-25T01:09:48.882Z,21.70
2023-03-25T01:12:16.724Z,23.38
2023-03-25T01:14:43.786Z,23.65
2023-03-25T01:17:11.595Z,21.92
2023-03-25T01:19:38.972Z,24.05
2023-03-25T01:22:06.289Z,27.83
2023-03-25T01:24:33.778Z,28.63
2023-03-25T01:27:01.180Z,39.28
2023-03-25T01:29:29.476Z,22.75
2023-03-25T01:31:58.155Z,24.83
2023-03-25T01:34:26.064Z,26.45
2023-03-25T01:36:55.908Z,25.92
2023-03-25T01:39:23.259Z,25.65
2023-03-25T01:41:51.516Z,24.98
2023-03-25T01:44:39.038Z,25.80
2023-03-25T01:47:08.344Z,23.23
2023-03-25T01:49:39.394Z,25.38
2023-03-25T01:52:13.887Z,25.08
2023-03-25T01:54:42.102Z,22.67
2023-03-25T01:57:10.861Z,24.63
2023-03-25T01:59:38.525Z,24.92
2023-03-25T02:02:08.551Z,25.08
2023-03-25T02:05:03.888Z,27.17
2023-03-25T02:07:35.903Z,25.60
2023-03-25T02:10:08.208Z,25.00
2023-03-25T02:12:35.719Z,24.67
2023-03-25T02:15:05.479Z,29.77
2023-03-25T02:17:38.944Z,25.65
2023-03-25T02:20:15.234Z,26.70
2023-03-25T02:23:04.275Z,26.42
2023-03-25T02:26:08.526Z,25.92
2023-03-25T02:28:56.251Z,30.83
2023-03-25T02:31:25.549Z,67.75
2023-03-25T02:34:11.196Z,50.47
2023-03-25T02:36:44.208Z,26.38
2023-03-25T02:39:16.903Z,25.52
2023-03-25T02:41:51.687Z,25.17
2023-03-25T02:44:52.032Z,26.00
2023-03-25T02:47:21.181Z,22.17
2023-03-25T02:49:53.387Z,23.77
2023-03-25T02:52:25.021Z,27.60
2023-03-25T02:54:58.052Z,24.13
2023-03-25T02:57:28.717Z,23.52
2023-03-25T02:59:57.618Z,28.05
2023-03-25T03:02:26.690Z,26.27
2023-03-25T03:04:56.801Z,24.08
2023-03-25T03:07:32.776Z,22.75
2023-03-25T03:10:30.691Z,26.42
2023-03-25T03:13:09.938Z,25.75
2023-03-25T03:15:49.510Z,27.58
2023-03-25T03:18:42.339Z,31.45
2023-03-25T03:21:24.967Z,21.77
2023-03-25T03:24:00.341Z,22.40
2023-03-25T03:26:50.789Z,23.70
2023-03-25T03:29:20.123Z,23.98
2023-03-25T03:32:05.510Z,23.27
2023-03-25T03:34:53.119Z,25.08
2023-03-25T03:37:33.247Z,25.30
2023-03-25T03:40:03.494Z,31.25
2023-03-25T03:42:37.728Z,19.00
2023-03-25T03:45:18.767Z,24.13
2023-03-25T03:47:49.707Z,23.75
2023-03-25T03:50:20.701Z,18.35
2023-03-25T03:53:10.424Z,20.88
2023-03-25T03:55:53.193Z,19.60
2023-03-25T03:58:30.600Z,22.10
2023-03-25T04:01:09.938Z,18.17
2023-03-25T04:03:48.743Z,17.60
2023-03-25T04:06:35.522Z,21.08
2023-03-25T04:09:08.727Z,19.85
2023-03-25T04:11:56.546Z,21.65
2023-03-25T04:14:23.993Z,22.98
2023-03-25T04:16:53.187Z,23.13
2023-03-25T04:19:20.645Z,16.52
2023-03-25T04:21:48.061Z,18.42
2023-03-25T04:24:16.972Z,16.15
2023-03-25T04:26:44.162Z,18.15
2023-03-25T04:29:13.889Z,16.75
2023-03-25T04:31:46.504Z,14.63
2023-03-25T04:34:15.009Z,22.02
2023-03-25T04:36:43.241Z,20.70
2023-03-25T04:39:17.744Z,22.55
2023-03-25T04:41:44.889Z,15.85
2023-03-25T04:44:12.736Z,16.45
2023-03-25T04:46:40.066Z,22.17
2023-03-25T04:49:14.201Z,17.13
2023-03-25T04:51:49.526Z,18.98
2023-03-25T04:54:20.044Z,18.08
2023-03-25T04:56:49.786Z,18.17
2023-03-25T04:59:18.793Z,18.60
2023-03-25T05:01:46.225Z,14.98
2023-03-25T05:04:17.531Z,16.73
2023-03-25T05:06:47.211Z,15.90
2023-03-25T05:09:19.825Z,15.35
2023-03-25T05:11:47.087Z,14.95
2023-03-25T05:14:16.805Z,16.73
2023-03-25T05:16:44.975Z,16.77
2023-03-25T05:19:12.657Z,20.65
2023-03-25T05:21:41.125Z,20.35
2023-03-25T05:24:10.450Z,16.58
2023-03-25T05:26:39.866Z,21.60
2023-03-25T05:29:15.568Z,17.83
2023-03-25T05:31:45.802Z,14.60
2023-03-25T05:34:17.207Z,25.92
2023-03-25T05:36:45.077Z,19.58
2023-03-25T05:39:13.056Z,21.83
2023-03-25T05:41:40.100Z,20.05
2023-03-25T05:44:08.341Z,23.52
2023-03-25T05:46:35.574Z,22.33
2023-03-25T05:49:03.118Z,20.85
2023-03-25T05:51:34.081Z,17.60
2023-03-25T05:54:01.973Z,21.50
2023-03-25T05:56:29.799Z,19.30
2023-03-25T05:58:57.678Z,22.15
2023-03-25T06:01:33.350Z,24.63
2023-03-25T06:04:03.009Z,21.63
2023-03-25T06:06:34.357Z,19.77
2023-03-25T06:09:03.031Z,22.60
2023-03-25T06:11:30.209Z,22.17
2023-03-25T06:13:57.611Z,20.35
2023-03-25T06:16:30.073Z,22.92
2023-03-25T06:19:00.365Z,22.52
2023-03-25T06:21:29.702Z,29.15
2023-03-25T06:23:58.366Z,24.05
2023-03-25T06:26:25.477Z,19.85
2023-03-25T06:28:53.113Z,20.38
2023-03-25T06:31:28.300Z,20.35
2023-03-25T06:33:58.366Z,23.33
2023-03-25T06:36:25.989Z,22.10
2023-03-25T06:38:53.865Z,27.13
2023-03-25T06:41:25.163Z,27.88
2023-03-25T06:44:09.638Z,26.08
2023-03-25T06:46:45.949Z,30.30
2023-03-25T06:49:39.382Z,24.10
2023-03-25T06:52:06.695Z,27.23
2023-03-25T06:54:34.641Z,27.33
2023-03-25T06:57:01.591Z,28.83
2023-03-25T06:59:29.325Z,27.05
2023-03-25T07:01:56.529Z,27.75
2023-03-25T07:04:24.156Z,28.73
2023-03-25T07:06:51.178Z,31.25
2023-03-25T07:09:18.456Z,30.08
2023-03-25T07:11:45.655Z,28.50
2023-03-25T07:14:12.980Z,32.50
2023-03-25T07:16:40.294Z,29.25
2023-03-25T07:19:07.587Z,33.35
2023-03-25T07:21:34.670Z,28.98
2023-03-25T07:24:01.938Z,27.60
2023-03-25T07:26:28.951Z,27.65
2023-03-25T07:28:56.279Z,28.65
2023-03-25T07:31:23.339Z,28.00
2023-03-25T07:33:51.613Z,26.38
2023-03-25T07:36:19.125Z,28.50
2023-03-25T07:38:46.422Z,29.33
2023-03-25T07:41:13.869Z,28.60
2023-03-25T07:43:52.447Z,31.00
2023-03-25T07:46:25.656Z,28.88
2023-03-25T07:48:53.057Z,27.10
2023-03-25T07:51:20.022Z,29.73
2023-03-25T07:53:47.659Z,29.45
2023-03-25T07:56:15.631Z,30.27
2023-03-25T07:58:44.564Z,27.60
2023-03-25T08:01:11.891Z,30.30
2023-03-25T08:03:40.048Z,32.10
2023-03-25T08:06:08.140Z,34.53
2023-03-25T08:08:35.827Z,32.05
2023-03-25T08:11:03.197Z,31.70
2023-03-25T08:13:31.107Z,30.52
2023-03-25T08:15:58.177Z,36.67
2023-03-25T08:18:26.104Z,33.08
2023-03-25T08:20:53.715Z,27.80
2023-03-25T08:23:22.557Z,31.30
2023-03-25T08:25:50.911Z,31.25
2023-03-25T08:28:23.163Z,29.73
2023-03-25T08:30:55.240Z,30.58
2023-03-25T08:33:27.300Z,27.67
2023-03-25T08:35:57.462Z,26.90
2023-03-25T08:38:25.568Z,28.73
2023-03-25T08:40:52.746Z,27.15
2023-03-25T08:43:20.037Z,31.52
2023-03-25T08:45:47.110Z,36.33
2023-03-25T08:48:14.509Z,29.77
2023-03-25T08:50:41.519Z,30.65
2023-03-25T08:53:09.286Z,32.17
2023-03-25T08:55:37.449Z,31.35
2023-03-25T08:58:06.271Z,30.73
2023-03-25T09:00:33.565Z,33.13
2023-03-25T09:03:01.310Z,27.75
2023-03-25T09:05:28.597Z,35.13
2023-03-25T09:07:56.036Z,40.40
2023-03-25T09:10:23.159Z,34.50
2023-03-25T09:12:51.418Z,70.30
2023-03-25T09:15:18.681Z,35.00
2023-03-25T09:17:45.986Z,32.85
2023-03-25T09:20:13.303Z,31.17
2023-03-25T09:22:41.434Z,33.85
2023-03-25T09:25:08.983Z,34.25
2023-03-25T09:27:36.493Z,30.85
2023-03-25T09:30:05.190Z,27.98
2023-03-25T09:32:32.575Z,28.63
2023-03-25T09:34:59.752Z,30.85
2023-03-25T09:37:27.530Z,30.60
2023-03-25T09:39:54.646Z,31.90
2023-03-25T09:42:35.602Z,38.17
2023-03-25T09:45:11.903Z,37.45
2023-03-25T09:47:42.274Z,30.63
2023-03-25T09:50:13.112Z,29.67
2023-03-25T09:52:51.632Z,35.30
2023-03-25T09:55:33.017Z,28.50
2023-03-25T09:58:14.818Z,28.80
2023-03-25T10:00:42.086Z,25.00
2023-03-25T10:03:24.274Z,28.92
2023-03-25T10:06:00.112Z,23.00
2023-03-25T10:08:45.727Z,36.50
2023-03-25T10:11:21.298Z,25.27
2023-03-25T10:14:01.169Z,34.30
2023-03-25T10:16:37.272Z,26.02
2023-03-25T10:19:16.046Z,36.95
2023-03-25T10:21:46.827Z,74.25
2023-03-25T10:24:17.373Z,55.72
2023-03-25T10:26:53.491Z,39.38
2023-03-25T10:29:25.051Z,38.72
2023-03-25T10:31:54.275Z,35.72
2023-03-25T10:34:36.134Z,46.58
2023-03-25T10:37:07.879Z,42.00
2023-03-25T10:39:38.325Z,44.85
2023-03-25T10:42:18.239Z,61.25
2023-03-25T10:44:46.548Z,38.85
2023-03-25T10:47:18.244Z,29.27
2023-03-25T10:49:47.564Z,31.60
2023-03-25T10:52:15.893Z,36.22
2023-03-25T10:54:45.931Z,36.92
2023-03-25T10:57:21.773Z,37.88
2023-03-25T10:59:54.979Z,44.13
2023-03-25T11:02:25.670Z,62.08
2023-03-25T11:04:57.828Z,39.90
2023-03-25T11:07:40.231Z,42.22
2023-03-25T11:10:14.654Z,35.05
2023-03-25T11:12:46.602Z,44.10
2023-03-25T11:15:17.227Z,55.08
2023-03-25T11:17:47.682Z,42.15
2023-03-25T11:20:22.615Z,37.50
2023-03-25T11:22:52.013Z,67.07
2023-03-25T11:25:30.131Z,59.63
2023-03-25T11:28:04.038Z,127.45
2023-03-25T11:30:31.399Z,37.60
2023-03-25T11:33:03.798Z,29.02
2023-03-25T11:35:34.722Z,26.15
2023-03-25T11:38:03.048Z,21.70
2023-03-25T11:40:31.924Z,23.00
2023-03-25T11:43:00.441Z,24.88
2023-03-25T11:45:37.745Z,21.85
2023-03-25T11:48:15.362Z,21.42
2023-03-25T11:50:54.840Z,23.85
2023-03-25T11:53:22.953Z,20.92
2023-03-25T11:55:52.472Z,20.80
2023-03-25T11:58:22.478Z,19.55
2023-03-25T12:00:51.309Z,20.67
2023-03-25T12:03:23.257Z,20.67
2023-03-25T12:06:05.440Z,20.73
2023-03-25T12:09:03.881Z,23.67
2023-03-25T12:11:42.840Z,19.77
2023-03-25T12:14:12.689Z,22.80
2023-03-25T12:16:48.942Z,20.20
2023-03-25T12:19:37.335Z,25.25
2023-03-25T12:22:11.393Z,18.95
2023-03-25T12:25:03.345Z,20.05
2023-03-25T12:27:46.249Z,20.42
2023-03-25T12:30:29.671Z,23.38
2023-03-25T12:33:16.508Z,18.33
2023-03-25T12:36:15.920Z,18.92
2023-03-25T12:38:49.186Z,20.80
2023-03-25T12:41:26.504Z,14.65
2023-03-25T12:44:10.980Z,15.40
2023-03-25T12:46:40.888Z,89.68
2023-03-25T12:49:32.900Z,111.25
2023-03-25T12:52:11.784Z,13.70
2023-03-25T12:55:04.213Z,10.70
2023-03-25T12:57:40.572Z,11.35
2023-03-25T13:00:23.181Z,13.13
2023-03-25T13:03:21.765Z,11.73
2023-03-25T13:06:02.249Z,13.02
2023-03-25T13:08:35.828Z,12.57
2023-03-25T13:11:09.104Z,13.55
2023-03-25T13:13:37.287Z,11.10
2023-03-25T13:16:11.548Z,14.60
2023-03-25T13:19:10.657Z,13.75
2023-03-25T13:21:44.604Z,18.52
2023-03-25T13:24:16.428Z,12.07
2023-03-25T13:26:45.823Z,15.95
2023-03-25T13:29:18.802Z,31.55
2023-03-25T13:31:48.247Z,19.58
2023-03-25T13:34:27.300Z,13.10
2023-03-25T13:37:15.032Z,14.32
2023-03-25T13:40:01.190Z,16.08
2023-03-25T13:42:55.622Z,16.67
2023-03-25T13:45:24.179Z,22.27
2023-03-25T13:48:16.553Z,42.95
2023-03-25T13:50:43.660Z,26.67
2023-03-25T13:53:15.134Z,16.95
2023-03-25T13:55:46.673Z,9.18
2023-03-25T13:58:45.361Z,8.85
2023-03-25T14:01:20.923Z,18.40
2023-03-25T14:04:12.984Z,9.27
2023-03-25T14:06:55.192Z,17.58
2023-03-25T14:09:46.766Z,95.47
2023-03-25T14:12:22.191Z,11.63
2023-03-25T14:15:17.600Z,14.18
2023-03-25T14:17:47.042Z,13.32
2023-03-25T14:20:24.456Z,33.80
2023-03-25T14:22:57.004Z,76.03
2023-03-25T14:25:45.937Z,43.00
2023-03-25T14:28:18.453Z,26.77
2023-03-25T14:31:14.471Z,11.25
2023-03-25T14:34:00.248Z,10.82
2023-03-25T14:36:39.485Z,14.80
2023-03-25T14:39:30.692Z,13.85
2023-03-25T14:42:08.969Z,11.48
2023-03-25T14:44:49.936Z,9.73
2023-03-25T14:47:20.882Z,10.95
2023-03-25T14:50:01.648Z,12.07
2023-03-25T14:52:41.853Z,14.20
2023-03-25T14:55:19.266Z,15.20
2023-03-25T14:57:47.433Z,38.33
2023-03-25T15:00:28.227Z,16.52
2023-03-25T15:03:08.807Z,15.55
2023-03-25T15:05:37.267Z,12.85
2023-03-25T15:08:09.457Z,10.30
2023-03-25T15:10:40.136Z,14.13
2023-03-25T15:13:46.703Z,11.63
2023-03-25T15:16:18.566Z,19.38
2023-03-25T15:18:47.176Z,10.35
2023-03-25T15:21:14.622Z,20.90
2023-03-25T15:23:42.328Z,28.20
2023-03-25T15:26:42.170Z,17.48
2023-03-25T15:29:31.659Z,10.52
2023-03-25T15:32:20.974Z,13.02
2023-03-25T15:35:21.591Z,32.63
2023-03-25T15:38:10.490Z,45.78
2023-03-25T15:40:59.003Z,45.42
2023-03-25T15:44:03.115Z,24.20
2023-03-25T15:46:49.875Z,10.07
2023-03-25T15:49:40.177Z,11.60
2023-03-25T15:52:31.016Z,23.27
2023-03-25T15:55:06.779Z,11.30
2023-03-25T15:57:43.094Z,12.32
2023-03-25T16:00:35.654Z,13.25
2023-03-25T16:03:06.166Z,15.55
2023-03-25T16:05:40.432Z,9.85
2023-03-25T16:08:10.429Z,18.63
2023-03-25T16:10:39.559Z,12.23
2023-03-25T16:13:11.952Z,8.07
2023-03-25T16:15:40.199Z,7.95
2023-03-25T16:18:10.420Z,6.57
2023-03-25T16:20:37.812Z,13.30
2023-03-25T16:23:06.489Z,19.38
2023-03-25T16:25:38.941Z,31.92
2023-03-25T16:28:36.708Z,32.45
2023-03-25T16:31:04.644Z,11.13
2023-03-25T16:33:38.662Z,11.23
2023-03-25T16:36:15.941Z,7.18
2023-03-25T16:38:44.202Z,7.35
2023-03-25T16:41:13.836Z,50.88
2023-03-25T16:43:42.118Z,47.58
2023-03-25T16:46:11.984Z,13.43
2023-03-25T16:48:41.942Z,6.78
2023-03-25T16:51:17.364Z,9.48
2023-03-25T16:54:01.146Z,5.38
2023-03-25T16:56:32.744Z,6.50
2023-03-25T16:59:08.483Z,7.25
2023-03-25T17:01:42.679Z,6.35
2023-03-25T17:04:22.790Z,6.07
2023-03-25T17:06:53.066Z,8.55
2023-03-25T17:09:23.985Z,13.40
2023-03-25T17:11:57.082Z,11.80
2023-03-25T17:14:33.727Z,7.35
2023-03-25T17:17:08.611Z,18.60
2023-03-25T17:19:37.060Z,13.85
2023-03-25T17:22:16.630Z,102.93
2023-03-25T17:24:53.694Z,117.50
2023-03-25T17:27:23.906Z,117.30
2023-03-25T17:29:53.920Z,309.45
2023-03-25T17:32:21.503Z,301.52
2023-03-25T17:34:56.608Z,279.48
2023-03-25T17:37:25.192Z,416.90
2023-03-25T17:39:52.940Z,503.05
2023-03-25T17:42:24.694Z,425.13
2023-03-25T17:44:53.040Z,178.88
2023-03-25T17:47:21.185Z,424.95
2023-03-25T17:49:48.608Z,227.68
2023-03-25T17:52:15.621Z,310.90
2023-03-25T17:54:42.897Z,256.33
2023-03-25T17:57:19.929Z,246.00
2023-03-25T17:59:47.352Z,274.98
2023-03-25T18:02:16.501Z,39.33
2023-03-25T18:04:44.278Z,20.98
2023-03-25T18:07:11.576Z,15.70
2023-03-25T18:09:39.600Z,18.85
2023-03-25T18:12:07.182Z,44.85
2023-03-25T18:14:35.218Z,19.83
2023-03-25T18:17:04.101Z,23.70
2023-03-25T18:19:32.233Z,32.60
2023-03-25T18:22:06.758Z,40.17
2023-03-25T18:24:41.493Z,61.88
2023-03-25T18:27:10.844Z,73.90
2023-03-25T18:29:39.841Z,15.05
2023-03-25T18:32:07.146Z,27.92
2023-03-25T18:34:34.624Z,15.48
2023-03-25T18:37:02.135Z,12.45
2023-03-25T18:39:30.209Z,33.92
2023-03-25T18:41:57.180Z,26.77
2023-03-25T18:44:27.735Z,11.05
2023-03-25T18:46:54.758Z,18.15
2023-03-25T18:49:22.089Z,12.23
2023-03-25T18:51:50.673Z,13.25
2023-03-25T18:54:18.105Z,10.98
2023-03-25T18:56:45.333Z,16.90
2023-03-25T18:59:18.825Z,37.63
2023-03-25T19:01:46.015Z,13.93
2023-03-25T19:04:13.733Z,19.88
2023-03-25T19:06:40.717Z,30.63
2023-03-25T19:09:15.332Z,52.38
2023-03-25T19:11:42.369Z,42.28
2023-03-25T19:14:09.630Z,17.98
2023-03-25T19:16:36.651Z,16.30
2023-03-25T19:19:04.095Z,24.30
2023-03-25T19:21:31.155Z,19.50
2023-03-25T19:23:58.538Z,18.40
2023-03-25T19:26:25.537Z,21.58
2023-03-25T19:28:52.855Z,25.38
2023-03-25T19:31:19.894Z,23.92
2023-03-25T19:33:47.311Z,26.13
2023-03-25T19:36:16.275Z,20.80
2023-03-25T19:38:45.079Z,24.70
2023-03-25T19:41:13.801Z,35.40
2023-03-25T19:43:41.197Z,34.42
2023-03-25T19:46:08.513Z,32.67
2023-03-25T19:48:36.185Z,14.90
2023-03-25T19:51:03.513Z,17.63
2023-03-25T19:53:31.234Z,15.20
2023-03-25T19:56:02.531Z,18.42
2023-03-25T19:58:30.182Z,11.90
2023-03-25T20:00:57.400Z,11.90
2023-03-25T20:03:24.939Z,19.38
2023-03-25T20:06:00.638Z,15.73
2023-03-25T20:08:29.770Z,12.27
2023-03-25T20:10:56.855Z,13.63
2023-03-25T20:13:24.396Z,17.05
2023-03-25T20:15:51.962Z,18.40
2023-03-25T20:18:20.043Z,16.98
2023-03-25T20:20:47.039Z,21.55
2023-03-25T20:23:14.366Z,29.42
2023-03-25T20:25:41.825Z,19.15
2023-03-25T20:28:09.332Z,24.08
2023-03-25T20:30:36.463Z,18.85
2023-03-25T20:33:03.972Z,24.30
2023-03-25T20:35:31.805Z,20.00
2023-03-25T20:37:59.262Z,28.95
2023-03-25T20:40:37.357Z,19.15
2023-03-25T20:43:13.888Z,23.10
2023-03-25T20:45:41.909Z,19.85
2023-03-25T20:48:09.281Z,35.30
2023-03-25T20:50:36.480Z,41.00
2023-03-25T20:53:04.435Z,40.55
2023-03-25T20:55:31.699Z,28.90
2023-03-25T20:57:59.017Z,17.70
2023-03-25T21:00:26.752Z,24.30
2023-03-25T21:02:54.439Z,19.17
2023-03-25T21:05:21.773Z,18.50
2023-03-25T21:07:49.227Z,21.52
2023-03-25T21:10:16.505Z,21.25
2023-03-25T21:12:44.927Z,21.35
2023-03-25T21:15:14.682Z,14.70
2023-03-25T21:17:42.930Z,14.73
2023-03-25T21:20:10.548Z,13.57
2023-03-25T21:22:44.779Z,17.60
2023-03-25T21:25:14.789Z,14.32
2023-03-25T21:27:45.169Z,16.10
2023-03-25T21:30:13.962Z,11.05
2023-03-25T21:32:41.829Z,36.72
2023-03-25T21:35:09.666Z,13.50
2023-03-25T21:37:40.627Z,11.20
2023-03-25T21:40:10.636Z,11.13
2023-03-25T21:42:42.516Z,9.07
2023-03-25T21:45:11.533Z,19.40
2023-03-25T21:47:38.905Z,14.45
2023-03-25T21:50:09.963Z,16.48
2023-03-25T21:52:38.646Z,42.30
2023-03-25T21:55:06.386Z,10.13
2023-03-25T21:57:37.827Z,12.98
2023-03-25T22:00:08.023Z,13.88
2023-03-25T22:02:39.125Z,15.68
2023-03-25T22:05:06.879Z,187.10
2023-03-25T22:07:34.202Z,133.95
2023-03-25T22:10:01.234Z,69.13
2023-03-25T22:12:30.104Z,15.43
2023-03-25T22:14:57.524Z,13.82
2023-03-25T22:17:25.069Z,15.13
2023-03-25T22:19:52.142Z,11.60
2023-03-25T22:22:21.552Z,15.02
2023-03-25T22:24:49.553Z,13.82
2023-03-25T22:27:17.013Z,14.43
2023-03-25T22:29:44.540Z,13.68
2023-03-25T22:32:11.864Z,14.90
2023-03-25T22:34:39.613Z,16.25
2023-03-25T22:37:07.059Z,15.65
2023-03-25T22:39:34.224Z,16.20
2023-03-25T22:42:01.592Z,32.67
2023-03-25T22:44:28.784Z,21.17
2023-03-25T22:46:56.542Z,18.60
2023-03-25T22:49:23.566Z,16.52
2023-03-25T22:51:51.520Z,15.57
2023-03-25T22:54:18.564Z,18.15
2023-03-25T22:56:46.277Z,17.42
2023-03-25T22:59:14.563Z,18.40
2023-03-25T23:01:42.836Z,16.83
2023-03-25T23:04:09.835Z,21.00
2023-03-25T23:06:37.418Z,17.17
2023-03-25T23:09:06.503Z,15.60
2023-03-25T23:11:35.050Z,19.85
2023-03-25T23:14:06.712Z,19.42
2023-03-25T23:16:34.717Z,22.77
2023-03-25T23:19:03.709Z,17.35
2023-03-25T23:21:32.761Z,26.67
2023-03-25T23:24:01.642Z,38.28
2023-03-25T23:26:34.472Z,16.55
2023-03-25T23:29:01.529Z,18.08
2023-03-25T23:31:34.013Z,17.25
2023-03-25T23:34:04.506Z,15.63
2023-03-25T23:36:34.463Z,18.65
2023-03-25T23:39:02.324Z,18.77
2023-03-25T23:41:29.975Z,18.40
2023-03-25T23:43:57.068Z,21.77
2023-03-25T23:46:25.724Z,16.95
2023-03-25T23:49:01.939Z,14.02
2023-03-25T23:51:33.295Z,14.90
2023-03-25T23:54:00.647Z,35.15
2023-03-25T23:56:28.656Z,26.80
2023-03-25T23:58:56.026Z,21.10
